Strona główna
METAR-TAF:

METAR-TAF

Lotnisko :

Port lotniczy Curaçao

Curaçao, Antyle Holenderskie

Szerokość geograficzna: 12-12N, Długość geograficzna: 068-58W, wysokość: 9 m

Aktualna obserwacja pogody

Raport powstał 48 minut temu, godzina 23:00 UTC
Wiatr 15 kt od wschód
Temperatura 27°C
Wilgotność 70%
Ciśnienie 1012 hPa
Widzialność 10 km lub więcej
Mało chmury na wysokości 1800 ft

METAR: TNCC 182300Z 09015KT 9999 FEW018 27/21 Q1012 NOSIG

czas: 19:48 (23:48 UTC)

Prognoza

Raport powstał 33 minut temu, godzina 23:15 UTC
Prognoza ważna od 19 godzina 00 UTC do 19 godzina 24 UTC
Wiatr 15 kt od wschód
Widzialność 10 km lub więcej
Rozproszone chmury na wysokości 2000 ft
Przejściowo
od 19 godzina 12 UTC do 19 godzina 24 UTC
Wiatr 17 kt od wschód w porywach dochodzący do 29 kt

TAF: TNCC 182315Z 1900/1924 09015KT 9999 SCT020 TEMPO 1912/1924 10017G29KT

Obserwacja i prognoza pogody dla ponad 4000 lotnisk (raport METAR i TAF).

Dostępne stacje oznaczono żółtymi i czerwonymi punktami na mapie.

Najedź kursorem aby zobaczyć nazwę stacji.

Kliknij aby zobaczyć obserwacje i prognozy pogody.

Aby zmienić mapę: kliknij na zielony przycisk z czarnym krzyżykiem, aby powiększyć; na zielony przycisk z myślnikiem, aby pomniejszyć; na zielone strzałki, aby przejść do map sąsiednich.


METAR-TAF: